sensor_id;sensor_type;location;lat;lon;timestamp;pressure;altitude;pressure_sealevel;temperature;humidity
29815;BME280;16708;50.426;7.664;2023-03-01T00:02:51;998.32;;;-1.43;100.00
29815;BME280;16708;50.426;7.664;2023-03-01T00:07:46;998.37;;;-1.31;100.00
29815;BME280;16708;50.426;7.664;2023-03-01T00:12:40;998.41;;;-1.29;100.00
29815;BME280;16708;50.426;7.664;2023-03-01T00:17:34;998.38;;;-1.28;100.00
29815;BME280;16708;50.426;7.664;2023-03-01T00:22:29;998.32;;;-1.28;100.00
29815;BME280;16708;50.426;7.664;2023-03-01T00:27:23;998.33;;;-1.43;100.00
29815;BME280;16708;50.426;7.664;2023-03-01T00:32:16;998.30;;;-1.39;100.00
29815;BME280;16708;50.426;7.664;2023-03-01T00:37:10;998.22;;;-1.48;100.00
29815;BME280;16708;50.426;7.664;2023-03-01T00:42:04;998.29;;;-1.59;100.00
29815;BME280;16708;50.426;7.664;2023-03-01T00:46:58;998.32;;;-1.56;100.00
29815;BME280;16708;50.426;7.664;2023-03-01T00:51:51;998.26;;;-1.67;100.00
29815;BME280;16708;50.426;7.664;2023-03-01T00:56:45;998.22;;;-1.60;100.00
29815;BME280;16708;50.426;7.664;2023-03-01T01:01:39;998.20;;;-1.82;100.00
29815;BME280;16708;50.426;7.664;2023-03-01T01:06:32;998.26;;;-1.86;100.00
29815;BME280;16708;50.426;7.664;2023-03-01T01:11:27;998.22;;;-1.78;100.00
29815;BME280;16708;50.426;7.664;2023-03-01T01:16:19;998.23;;;-1.76;100.00
29815;BME280;16708;50.426;7.664;2023-03-01T01:21:12;998.14;;;-1.86;100.00
29815;BME280;16708;50.426;7.664;2023-03-01T01:26:06;998.20;;;-1.98;100.00
29815;BME280;16708;50.426;7.664;2023-03-01T01:30:59;998.11;;;-2.11;100.00
29815;BME280;16708;50.426;7.664;2023-03-01T01:35:52;998.04;;;-2.13;100.00
29815;BME280;16708;50.426;7.664;2023-03-01T01:45:39;997.98;;;-2.30;100.00
29815;BME280;16708;50.426;7.664;2023-03-01T01:50:33;997.99;;;-2.37;100.00
29815;BME280;16708;50.426;7.664;2023-03-01T01:55:27;997.94;;;-2.42;100.00
29815;BME280;16708;50.426;7.664;2023-03-01T02:00:21;997.98;;;-2.44;100.00
29815;BME280;16708;50.426;7.664;2023-03-01T02:05:14;997.86;;;-2.50;100.00
29815;BME280;16708;50.426;7.664;2023-03-01T02:10:09;997.82;;;-2.53;100.00
29815;BME280;16708;50.426;7.664;2023-03-01T02:15:03;997.67;;;-2.62;100.00
29815;BME280;16708;50.426;7.664;2023-03-01T02:19:57;997.63;;;-2.68;100.00
29815;BME280;16708;50.426;7.664;2023-03-01T02:24:49;997.73;;;-2.68;100.00
29815;BME280;16708;50.426;7.664;2023-03-01T02:29:42;997.73;;;-2.79;100.00
29815;BME280;16708;50.426;7.664;2023-03-01T02:34:37;997.65;;;-2.74;100.00
29815;BME280;16708;50.426;7.664;2023-03-01T02:39:30;997.62;;;-2.65;100.00
29815;BME280;16708;50.426;7.664;2023-03-01T02:44:24;997.57;;;-2.58;100.00
29815;BME280;16708;50.426;7.664;2023-03-01T02:49:18;997.57;;;-2.64;100.00
29815;BME280;16708;50.426;7.664;2023-03-01T02:54:12;997.39;;;-2.65;100.00
29815;BME280;16708;50.426;7.664;2023-03-01T02:59:07;997.41;;;-2.75;100.00
29815;BME280;16708;50.426;7.664;2023-03-01T03:04:06;997.31;;;-2.84;100.00
29815;BME280;16708;50.426;7.664;2023-03-01T03:08:55;997.38;;;-2.72;100.00
29815;BME280;16708;50.426;7.664;2023-03-01T03:13:49;997.31;;;-2.69;100.00
29815;BME280;16708;50.426;7.664;2023-03-01T03:18:43;997.26;;;-2.67;100.00
29815;BME280;16708;50.426;7.664;2023-03-01T03:23:35;997.20;;;-2.63;100.00
29815;BME280;16708;50.426;7.664;2023-03-01T03:28:29;997.17;;;-2.72;100.00
29815;BME280;16708;50.426;7.664;2023-03-01T03:33:23;997.14;;;-2.70;100.00
29815;BME280;16708;50.426;7.664;2023-03-01T03:38:16;997.01;;;-2.74;100.00
29815;BME280;16708;50.426;7.664;2023-03-01T03:43:10;996.91;;;-2.86;100.00
29815;BME280;16708;50.426;7.664;2023-03-01T03:48:03;996.91;;;-3.00;100.00
29815;BME280;16708;50.426;7.664;2023-03-01T03:52:58;996.71;;;-3.10;100.00
29815;BME280;16708;50.426;7.664;2023-03-01T03:57:52;996.72;;;-2.91;100.00
29815;BME280;16708;50.426;7.664;2023-03-01T04:02:43;996.79;;;-3.00;100.00
29815;BME280;16708;50.426;7.664;2023-03-01T04:07:38;996.77;;;-3.04;100.00
29815;BME280;16708;50.426;7.664;2023-03-01T04:12:31;996.74;;;-3.16;100.00
29815;BME280;16708;50.426;7.664;2023-03-01T04:17:25;996.83;;;-3.31;100.00
29815;BME280;16708;50.426;7.664;2023-03-01T04:22:19;996.90;;;-3.51;100.00
29815;BME280;16708;50.426;7.664;2023-03-01T04:27:13;996.86;;;-3.67;100.00
29815;BME280;16708;50.426;7.664;2023-03-01T04:32:07;996.86;;;-3.68;100.00
29815;BME280;16708;50.426;7.664;2023-03-01T04:37:01;996.88;;;-3.66;100.00
29815;BME280;16708;50.426;7.664;2023-03-01T04:41:55;996.90;;;-3.72;100.00
29815;BME280;16708;50.426;7.664;2023-03-01T04:46:48;996.86;;;-3.79;100.00
29815;BME280;16708;50.426;7.664;2023-03-01T04:51:43;996.90;;;-3.84;100.00
29815;BME280;16708;50.426;7.664;2023-03-01T04:56:37;996.88;;;-3.97;100.00
29815;BME280;16708;50.426;7.664;2023-03-01T05:01:31;996.94;;;-4.17;100.00
29815;BME280;16708;50.426;7.664;2023-03-01T05:06:26;996.91;;;-4.24;100.00
29815;BME280;16708;50.426;7.664;2023-03-01T05:11:20;996.92;;;-4.29;100.00
29815;BME280;16708;50.426;7.664;2023-03-01T05:16:17;996.94;;;-4.41;100.00
29815;BME280;16708;50.426;7.664;2023-03-01T05:21:07;996.94;;;-4.41;100.00
29815;BME280;16708;50.426;7.664;2023-03-01T05:26:01;996.88;;;-4.41;100.00
29815;BME280;16708;50.426;7.664;2023-03-01T05:30:55;996.82;;;-4.43;100.00
29815;BME280;16708;50.426;7.664;2023-03-01T05:35:49;996.83;;;-4.50;100.00
29815;BME280;16708;50.426;7.664;2023-03-01T05:40:43;996.84;;;-4.53;100.00
29815;BME280;16708;50.426;7.664;2023-03-01T05:45:37;996.75;;;-4.66;100.00
29815;BME280;16708;50.426;7.664;2023-03-01T05:50:31;996.77;;;-4.75;100.00
29815;BME280;16708;50.426;7.664;2023-03-01T05:55:25;996.70;;;-4.73;100.00
29815;BME280;16708;50.426;7.664;2023-03-01T06:00:19;996.75;;;-4.67;100.00
29815;BME280;16708;50.426;7.664;2023-03-01T06:05:13;996.71;;;-4.69;100.00
29815;BME280;16708;50.426;7.664;2023-03-01T06:10:07;996.61;;;-4.63;100.00
29815;BME280;16708;50.426;7.664;2023-03-01T06:15:02;996.63;;;-4.60;100.00
29815;BME280;16708;50.426;7.664;2023-03-01T06:19:56;996.61;;;-4.36;100.00
29815;BME280;16708;50.426;7.664;2023-03-01T06:24:50;996.58;;;-4.32;100.00
29815;BME280;16708;50.426;7.664;2023-03-01T06:29:45;996.65;;;-4.40;100.00
29815;BME280;16708;50.426;7.664;2023-03-01T06:34:39;996.63;;;-4.51;100.00
29815;BME280;16708;50.426;7.664;2023-03-01T06:39:33;996.59;;;-4.40;100.00
29815;BME280;16708;50.426;7.664;2023-03-01T06:44:27;996.68;;;-4.26;100.00
29815;BME280;16708;50.426;7.664;2023-03-01T06:49:22;996.55;;;-4.18;100.00
29815;BME280;16708;50.426;7.664;2023-03-01T06:54:16;996.66;;;-4.03;100.00
29815;BME280;16708;50.426;7.664;2023-03-01T06:59:10;996.69;;;-3.83;100.00
29815;BME280;16708;50.426;7.664;2023-03-01T07:04:04;996.72;;;-3.49;100.00
29815;BME280;16708;50.426;7.664;2023-03-01T07:08:58;996.68;;;-3.32;100.00
29815;BME280;16708;50.426;7.664;2023-03-01T07:13:52;996.70;;;-3.16;100.00
29815;BME280;16708;50.426;7.664;2023-03-01T07:18:47;996.57;;;-3.11;100.00
29815;BME280;16708;50.426;7.664;2023-03-01T07:23:41;996.52;;;-3.14;100.00
29815;BME280;16708;50.426;7.664;2023-03-01T07:28:35;996.43;;;-2.95;100.00
29815;BME280;16708;50.426;7.664;2023-03-01T07:33:30;996.42;;;-2.91;100.00
29815;BME280;16708;50.426;7.664;2023-03-01T07:38:24;996.39;;;-2.71;100.00
29815;BME280;16708;50.426;7.664;2023-03-01T07:43:19;996.41;;;-2.40;100.00
29815;BME280;16708;50.426;7.664;2023-03-01T07:48:12;996.35;;;-2.12;100.00
29815;BME280;16708;50.426;7.664;2023-03-01T07:53:07;996.45;;;-1.94;100.00
29815;BME280;16708;50.426;7.664;2023-03-01T07:58:00;996.46;;;-1.60;100.00
29815;BME280;16708;50.426;7.664;2023-03-01T08:02:55;996.46;;;-1.46;100.00
29815;BME280;16708;50.426;7.664;2023-03-01T08:07:49;996.49;;;-1.32;100.00
29815;BME280;16708;50.426;7.664;2023-03-01T08:12:43;996.51;;;-1.26;100.00
29815;BME280;16708;50.426;7.664;2023-03-01T08:17:37;996.51;;;-1.03;100.00
29815;BME280;16708;50.426;7.664;2023-03-01T08:22:32;996.48;;;-0.88;100.00
29815;BME280;16708;50.426;7.664;2023-03-01T08:27:24;996.45;;;-0.33;100.00
29815;BME280;16708;50.426;7.664;2023-03-01T08:32:19;996.40;;;0.14;100.00
29815;BME280;16708;50.426;7.664;2023-03-01T08:37:13;996.37;;;0.55;100.00
29815;BME280;16708;50.426;7.664;2023-03-01T08:42:07;996.27;;;1.12;100.00
29815;BME280;16708;50.426;7.664;2023-03-01T08:47:02;996.30;;;1.40;100.00
29815;BME280;16708;50.426;7.664;2023-03-01T08:51:56;996.24;;;1.76;100.00
29815;BME280;16708;50.426;7.664;2023-03-01T08:56:50;996.36;;;1.62;100.00
29815;BME280;16708;50.426;7.664;2023-03-01T09:01:43;996.16;;;2.15;100.00
29815;BME280;16708;50.426;7.664;2023-03-01T09:06:36;996.10;;;2.17;96.25
29815;BME280;16708;50.426;7.664;2023-03-01T09:11:31;996.12;;;2.61;92.48
29815;BME280;16708;50.426;7.664;2023-03-01T09:16:27;996.02;;;4.84;66.44
29815;BME280;16708;50.426;7.664;2023-03-01T09:21:23;995.98;;;6.74;52.93
29815;BME280;16708;50.426;7.664;2023-03-01T09:26:18;995.96;;;8.36;46.24
29815;BME280;16708;50.426;7.664;2023-03-01T09:31:12;996.06;;;9.00;43.78
29815;BME280;16708;50.426;7.664;2023-03-01T09:36:07;995.93;;;9.59;41.39
29815;BME280;16708;50.426;7.664;2023-03-01T09:41:02;995.78;;;9.83;40.07
29815;BME280;16708;50.426;7.664;2023-03-01T09:45:56;995.78;;;9.82;40.38
29815;BME280;16708;50.426;7.664;2023-03-01T09:50:51;995.79;;;10.31;39.21
29815;BME280;16708;50.426;7.664;2023-03-01T10:00:39;995.87;;;10.56;39.21
29815;BME280;16708;50.426;7.664;2023-03-01T10:05:34;995.86;;;11.64;36.00
29815;BME280;16708;50.426;7.664;2023-03-01T10:10:29;995.87;;;12.29;34.58
29815;BME280;16708;50.426;7.664;2023-03-01T10:20:18;995.70;;;12.24;34.06
29815;BME280;16708;50.426;7.664;2023-03-01T10:25:12;995.54;;;12.56;32.88
29815;BME280;16708;50.426;7.664;2023-03-01T10:30:07;995.33;;;12.91;32.25
29815;BME280;16708;50.426;7.664;2023-03-01T10:35:02;995.30;;;12.59;33.45
29815;BME280;16708;50.426;7.664;2023-03-01T10:39:56;995.28;;;12.26;33.01
29815;BME280;16708;50.426;7.664;2023-03-01T10:49:45;995.04;;;13.59;32.03
29815;BME280;16708;50.426;7.664;2023-03-01T10:54:40;995.19;;;13.25;32.10
29815;BME280;16708;50.426;7.664;2023-03-01T11:14:17;994.97;;;14.05;29.72
29815;BME280;16708;50.426;7.664;2023-03-01T11:19:12;994.94;;;15.57;28.49
29815;BME280;16708;50.426;7.664;2023-03-01T11:24:10;994.86;;;14.13;29.95
29815;BME280;16708;50.426;7.664;2023-03-01T11:29:01;994.91;;;14.57;29.12
29815;BME280;16708;50.426;7.664;2023-03-01T11:33:58;994.80;;;14.95;28.26
29815;BME280;16708;50.426;7.664;2023-03-01T11:38:49;994.71;;;16.55;26.31
29815;BME280;16708;50.426;7.664;2023-03-01T11:43:41;994.64;;;15.33;27.03
29815;BME280;16708;50.426;7.664;2023-03-01T12:37:38;994.01;;;18.20;22.37
29815;BME280;16708;50.426;7.664;2023-03-01T12:47:28;993.71;;;14.07;26.12
29815;BME280;16708;50.426;7.664;2023-03-01T12:52:19;993.74;;;16.00;24.55
29815;BME280;16708;50.426;7.664;2023-03-01T13:11:57;993.52;;;17.41;21.46
29815;BME280;16708;50.426;7.664;2023-03-01T13:16:52;993.40;;;18.31;21.61
29815;BME280;16708;50.426;7.664;2023-03-01T13:31:35;993.27;;;17.90;21.57
29815;BME280;16708;50.426;7.664;2023-03-01T13:41:24;993.14;;;16.48;23.72
29815;BME280;16708;50.426;7.664;2023-03-01T13:46:16;993.26;;;17.76;22.81
29815;BME280;16708;50.426;7.664;2023-03-01T13:51:11;993.21;;;18.81;21.21
29815;BME280;16708;50.426;7.664;2023-03-01T13:56:06;993.20;;;17.54;22.45
29815;BME280;16708;50.426;7.664;2023-03-01T14:01:00;993.16;;;18.97;20.70
29815;BME280;16708;50.426;7.664;2023-03-01T14:05:54;993.02;;;19.79;19.94
29815;BME280;16708;50.426;7.664;2023-03-01T14:10:46;992.98;;;18.62;20.03
29815;BME280;16708;50.426;7.664;2023-03-01T14:15:40;993.04;;;18.80;19.89
29815;BME280;16708;50.426;7.664;2023-03-01T14:20:34;993.01;;;20.17;19.04
29815;BME280;16708;50.426;7.664;2023-03-01T14:25:29;992.99;;;18.13;20.46
29815;BME280;16708;50.426;7.664;2023-03-01T14:30:23;992.96;;;17.66;21.21
29815;BME280;16708;50.426;7.664;2023-03-01T14:35:17;992.90;;;20.81;18.91
29815;BME280;16708;50.426;7.664;2023-03-01T14:40:15;992.88;;;17.71;21.85
29815;BME280;16708;50.426;7.664;2023-03-01T14:45:06;992.81;;;19.07;19.78
29815;BME280;16708;50.426;7.664;2023-03-01T14:50:00;992.62;;;19.54;18.33
29815;BME280;16708;50.426;7.664;2023-03-01T14:54:52;992.73;;;19.96;18.32
29815;BME280;16708;50.426;7.664;2023-03-01T14:59:44;992.72;;;18.80;19.32
29815;BME280;16708;50.426;7.664;2023-03-01T15:04:39;992.61;;;18.68;19.23
29815;BME280;16708;50.426;7.664;2023-03-01T15:09:33;992.52;;;19.18;18.06
29815;BME280;16708;50.426;7.664;2023-03-01T15:19:21;992.47;;;20.66;17.55
29815;BME280;16708;50.426;7.664;2023-03-01T15:24:14;992.40;;;19.18;18.41
29815;BME280;16708;50.426;7.664;2023-03-01T15:29:09;992.41;;;20.46;18.00
29815;BME280;16708;50.426;7.664;2023-03-01T15:48:45;992.06;;;14.79;22.78
29815;BME280;16708;50.426;7.664;2023-03-01T15:53:39;992.07;;;16.91;20.38
29815;BME280;16708;50.426;7.664;2023-03-01T15:58:33;992.00;;;16.60;21.22
29815;BME280;16708;50.426;7.664;2023-03-01T16:03:27;992.01;;;15.84;22.10
29815;BME280;16708;50.426;7.664;2023-03-01T16:08:22;992.15;;;14.76;23.13
29815;BME280;16708;50.426;7.664;2023-03-01T16:13:15;992.06;;;11.68;28.77
29815;BME280;16708;50.426;7.664;2023-03-01T16:18:09;992.21;;;12.48;27.38
29815;BME280;16708;50.426;7.664;2023-03-01T16:23:02;992.25;;;12.40;27.47
29815;BME280;16708;50.426;7.664;2023-03-01T16:27:57;992.26;;;13.16;26.40
29815;BME280;16708;50.426;7.664;2023-03-01T16:32:50;992.30;;;12.87;26.82
29815;BME280;16708;50.426;7.664;2023-03-01T16:37:45;992.23;;;11.61;28.19
29815;BME280;16708;50.426;7.664;2023-03-01T16:42:39;992.31;;;12.23;28.44
29815;BME280;16708;50.426;7.664;2023-03-01T16:47:32;992.39;;;9.25;32.86
29815;BME280;16708;50.426;7.664;2023-03-01T16:52:25;992.31;;;8.04;35.17
29815;BME280;16708;50.426;7.664;2023-03-01T16:57:19;992.44;;;7.59;36.38
29815;BME280;16708;50.426;7.664;2023-03-01T17:02:12;992.47;;;7.24;37.75
29815;BME280;16708;50.426;7.664;2023-03-01T17:07:06;992.50;;;6.89;37.66
29815;BME280;16708;50.426;7.664;2023-03-01T17:11:59;992.60;;;6.75;38.37
29815;BME280;16708;50.426;7.664;2023-03-01T17:16:53;992.51;;;6.37;38.77
29815;BME280;16708;50.426;7.664;2023-03-01T17:21:47;992.64;;;6.13;39.13
29815;BME280;16708;50.426;7.664;2023-03-01T17:26:42;992.65;;;5.88;39.65
29815;BME280;16708;50.426;7.664;2023-03-01T17:31:36;992.66;;;5.76;39.54
29815;BME280;16708;50.426;7.664;2023-03-01T17:36:30;992.66;;;5.47;39.73
29815;BME280;16708;50.426;7.664;2023-03-01T17:41:24;992.72;;;5.31;40.19
29815;BME280;16708;50.426;7.664;2023-03-01T17:46:21;992.74;;;5.04;40.66
29815;BME280;16708;50.426;7.664;2023-03-01T17:51:10;992.88;;;4.90;42.43
29815;BME280;16708;50.426;7.664;2023-03-01T17:56:02;992.91;;;4.71;41.87
29815;BME280;16708;50.426;7.664;2023-03-01T18:00:56;992.75;;;4.48;42.60
29815;BME280;16708;50.426;7.664;2023-03-01T18:05:49;992.68;;;4.23;44.14
29815;BME280;16708;50.426;7.664;2023-03-01T18:10:45;992.69;;;4.04;44.55
29815;BME280;16708;50.426;7.664;2023-03-01T18:15:38;992.70;;;3.81;45.28
29815;BME280;16708;50.426;7.664;2023-03-01T18:20:32;992.80;;;3.84;44.76
29815;BME280;16708;50.426;7.664;2023-03-01T18:25:27;992.69;;;3.65;45.52
29815;BME280;16708;50.426;7.664;2023-03-01T18:30:21;992.69;;;3.56;46.05
29815;BME280;16708;50.426;7.664;2023-03-01T18:35:15;992.66;;;3.40;46.83
29815;BME280;16708;50.426;7.664;2023-03-01T18:40:10;992.63;;;3.31;47.45
29815;BME280;16708;50.426;7.664;2023-03-01T18:45:02;992.63;;;3.11;47.78
29815;BME280;16708;50.426;7.664;2023-03-01T18:49:57;992.58;;;3.15;48.12
29815;BME280;16708;50.426;7.664;2023-03-01T18:54:51;992.65;;;3.10;48.73
29815;BME280;16708;50.426;7.664;2023-03-01T18:59:45;992.57;;;3.11;47.89
29815;BME280;16708;50.426;7.664;2023-03-01T19:04:40;992.61;;;3.14;47.80
29815;BME280;16708;50.426;7.664;2023-03-01T19:09:33;992.42;;;3.21;47.43
29815;BME280;16708;50.426;7.664;2023-03-01T19:14:28;992.34;;;3.19;47.71
29815;BME280;16708;50.426;7.664;2023-03-01T19:19:21;992.27;;;3.09;49.53
29815;BME280;16708;50.426;7.664;2023-03-01T19:24:15;992.25;;;3.24;47.21
29815;BME280;16708;50.426;7.664;2023-03-01T19:29:09;992.06;;;3.29;47.15
29815;BME280;16708;50.426;7.664;2023-03-01T19:34:03;992.01;;;3.16;47.76
29815;BME280;16708;50.426;7.664;2023-03-01T19:38:57;992.01;;;3.10;48.49
29815;BME280;16708;50.426;7.664;2023-03-01T19:43:51;992.12;;;3.03;48.04
29815;BME280;16708;50.426;7.664;2023-03-01T19:48:46;992.18;;;2.89;48.99
29815;BME280;16708;50.426;7.664;2023-03-01T19:53:40;992.21;;;2.77;50.49
29815;BME280;16708;50.426;7.664;2023-03-01T19:58:35;992.32;;;2.68;50.23
29815;BME280;16708;50.426;7.664;2023-03-01T20:03:28;992.32;;;2.64;50.52
29815;BME280;16708;50.426;7.664;2023-03-01T20:08:22;992.24;;;2.81;50.59
29815;BME280;16708;50.426;7.664;2023-03-01T20:13:14;992.27;;;2.86;50.08
29815;BME280;16708;50.426;7.664;2023-03-01T20:18:08;992.15;;;2.66;50.52
29815;BME280;16708;50.426;7.664;2023-03-01T20:23:02;992.15;;;2.58;50.54
29815;BME280;16708;50.426;7.664;2023-03-01T20:27:56;992.21;;;2.57;50.72
29815;BME280;16708;50.426;7.664;2023-03-01T20:32:50;992.35;;;2.53;50.46
29815;BME280;16708;50.426;7.664;2023-03-01T20:37:44;992.43;;;2.41;51.45
29815;BME280;16708;50.426;7.664;2023-03-01T20:42:37;992.43;;;2.36;51.75
29815;BME280;16708;50.426;7.664;2023-03-01T20:47:31;992.40;;;2.38;53.71
29815;BME280;16708;50.426;7.664;2023-03-01T20:52:25;992.49;;;2.38;51.48
29815;BME280;16708;50.426;7.664;2023-03-01T20:57:19;992.44;;;2.28;51.92
29815;BME280;16708;50.426;7.664;2023-03-01T21:02:12;992.57;;;2.12;52.86
29815;BME280;16708;50.426;7.664;2023-03-01T21:07:06;992.55;;;1.99;53.41
29815;BME280;16708;50.426;7.664;2023-03-01T21:12:00;992.62;;;1.88;54.63
29815;BME280;16708;50.426;7.664;2023-03-01T21:16:54;992.64;;;1.87;54.94
29815;BME280;16708;50.426;7.664;2023-03-01T21:21:48;992.65;;;2.11;55.90
29815;BME280;16708;50.426;7.664;2023-03-01T21:26:41;992.57;;;1.86;57.18
29815;BME280;16708;50.426;7.664;2023-03-01T21:31:36;992.55;;;1.71;57.82
29815;BME280;16708;50.426;7.664;2023-03-01T21:36:30;992.51;;;1.67;58.60
29815;BME280;16708;50.426;7.664;2023-03-01T21:41:24;992.51;;;1.64;58.67
29815;BME280;16708;50.426;7.664;2023-03-01T21:46:19;992.43;;;1.61;58.99
29815;BME280;16708;50.426;7.664;2023-03-01T21:51:13;992.41;;;1.60;60.39
29815;BME280;16708;50.426;7.664;2023-03-01T21:56:07;992.29;;;1.57;59.91
29815;BME280;16708;50.426;7.664;2023-03-01T22:00:59;992.39;;;1.49;60.60
29815;BME280;16708;50.426;7.664;2023-03-01T22:05:53;992.28;;;1.44;61.75
29815;BME280;16708;50.426;7.664;2023-03-01T22:10:47;992.31;;;1.44;62.80
29815;BME280;16708;50.426;7.664;2023-03-01T22:15:41;992.29;;;1.35;63.67
29815;BME280;16708;50.426;7.664;2023-03-01T22:20:35;992.25;;;1.36;63.97
29815;BME280;16708;50.426;7.664;2023-03-01T22:25:30;992.24;;;1.32;64.24
29815;BME280;16708;50.426;7.664;2023-03-01T22:30:24;992.20;;;1.29;65.25
29815;BME280;16708;50.426;7.664;2023-03-01T22:35:18;992.20;;;1.32;65.25
29815;BME280;16708;50.426;7.664;2023-03-01T22:40:12;992.19;;;1.24;66.47
29815;BME280;16708;50.426;7.664;2023-03-01T22:45:06;992.20;;;1.15;69.03
29815;BME280;16708;50.426;7.664;2023-03-01T22:50:01;992.17;;;1.16;68.80
29815;BME280;16708;50.426;7.664;2023-03-01T22:54:55;992.24;;;1.07;72.04
29815;BME280;16708;50.426;7.664;2023-03-01T22:59:48;992.22;;;1.17;70.52
29815;BME280;16708;50.426;7.664;2023-03-01T23:04:43;992.18;;;1.12;71.91
29815;BME280;16708;50.426;7.664;2023-03-01T23:09:37;992.20;;;1.13;73.23
29815;BME280;16708;50.426;7.664;2023-03-01T23:14:31;992.20;;;1.10;74.03
29815;BME280;16708;50.426;7.664;2023-03-01T23:19:25;992.29;;;1.06;75.83
29815;BME280;16708;50.426;7.664;2023-03-01T23:24:19;992.25;;;1.10;75.62
29815;BME280;16708;50.426;7.664;2023-03-01T23:29:14;992.23;;;1.02;76.95
29815;BME280;16708;50.426;7.664;2023-03-01T23:34:08;992.13;;;1.01;77.87
29815;BME280;16708;50.426;7.664;2023-03-01T23:39:00;992.08;;;1.00;78.64
29815;BME280;16708;50.426;7.664;2023-03-01T23:43:54;991.94;;;0.95;79.09
29815;BME280;16708;50.426;7.664;2023-03-01T23:48:48;992.05;;;0.90;79.82
29815;BME280;16708;50.426;7.664;2023-03-01T23:53:42;991.93;;;0.88;79.60
29815;BME280;16708;50.426;7.664;2023-03-01T23:58:37;991.81;;;1.01;78.70
